Terminal Aerodrome Forecast
Issued by NWS

Home | Current Version | Previous Version | Text Only | Print | Product List | Glossary Off
Versions: 1 2 3 4 5 6 7 8 9 10 11 12 13 14 15 16 17 18 19 20 21 22 23 24

662
FTUS41 KCLE 091734
TAFFDY
TAF
KFDY 091734Z 0918/1018 22011KT 5SM -SN SCT015 OVC030
      TEMPO 0919/0922 2SM -SN BR BKN015
     FM100100 29010KT P6SM OVC015
     FM100600 28008KT P6SM OVC030
     FM100900 27010KT P6SM SCT030 OVC040
     FM101500 24012G20KT P6SM SCT030 BKN040=

USA.gov is the U.S. government's official web portal to all federal, state and local government web resources and services.